Time;durP1;ratioP1;P1;durP2;ratioP2;P2;SDS_P1;SDS_P2;PMS_P1;PMS_P2;Temp;Humidity;BMP_temperature;BMP_pressure;BME280_temperature;BME280_humidity;BME280_pressure;Samples;Min_cycle;Max_cycle;Signal;HPM_P1;HPM_P2
2022/04/16 00:00:56;;;;;;;3.28;2.30;;;1.50;99.90;;;;;;5010373;28;20451;-84
2022/04/16 00:03:24;;;;;;;3.30;2.67;;;1.40;99.90;;;;;;5014497;28;20397;-85
2022/04/16 00:05:54;;;;;;;3.25;2.42;;;1.40;99.90;;;;;;5021146;28;20913;-85
2022/04/16 00:08:25;;;;;;;2.80;2.03;;;1.30;99.90;;;;;;5015278;28;20953;-84
2022/04/16 00:10:53;;;;;;;2.53;2.13;;;1.40;99.90;;;;;;5018960;28;20885;-85
2022/04/16 00:13:22;;;;;;;2.95;2.15;;;1.40;99.90;;;;;;5017994;28;20498;-85
2022/04/16 00:15:52;;;;;;;3.08;2.35;;;1.40;99.90;;;;;;5033644;28;20409;-84
2022/04/16 00:18:20;;;;;;;4.13;2.70;;;1.30;99.90;;;;;;5023100;28;20476;-85
2022/04/16 00:20:49;;;;;;;3.10;2.28;;;1.30;99.90;;;;;;5018600;28;20414;-85
2022/04/16 00:23:19;;;;;;;3.75;2.40;;;1.40;99.90;;;;;;5018339;28;20891;-84
2022/04/16 00:25:48;;;;;;;3.38;2.55;;;1.30;99.90;;;;;;5021000;28;20783;-85
2022/04/16 00:28:16;;;;;;;3.03;2.50;;;1.30;99.90;;;;;;5016762;28;20480;-86
2022/04/16 00:30:46;;;;;;;2.78;2.25;;;1.30;99.90;;;;;;5015955;28;20403;-85
2022/04/16 00:33:19;;;;;;;3.70;2.40;;;1.30;99.90;;;;;;5007904;28;20444;-85
2022/04/16 00:35:46;;;;;;;3.47;2.25;;;1.30;99.90;;;;;;5018703;28;20433;-85
2022/04/16 00:38:14;;;;;;;2.67;2.03;;;1.30;99.90;;;;;;5056929;28;20394;-85
2022/04/16 00:40:42;;;;;;;3.35;2.55;;;1.30;99.90;;;;;;5017417;28;20773;-84
2022/04/16 00:43:30;;;;;;;3.13;2.63;;;1.30;99.90;;;;;;5014057;28;20424;-85
2022/04/16 00:45:59;;;;;;;3.08;2.60;;;1.30;99.90;;;;;;4996073;28;20496;-84
2022/04/16 00:48:26;;;;;;;4.88;2.58;;;1.30;99.90;;;;;;5014908;28;20400;-85
2022/04/16 00:50:55;;;;;;;4.40;2.75;;;1.20;99.90;;;;;;5016990;28;20404;-86
2022/04/16 00:53:29;;;;;;;3.15;2.70;;;1.20;99.90;;;;;;5011181;28;20397;-84
2022/04/16 00:55:58;;;;;;;4.00;2.90;;;1.20;99.90;;;;;;5015492;28;20509;-84
2022/04/16 00:58:26;;;;;;;3.63;2.58;;;1.20;99.90;;;;;;5020917;28;20454;-85
2022/04/16 01:00:54;;;;;;;4.00;2.30;;;1.20;99.90;;;;;;5022216;28;20432;-85
2022/04/16 01:03:21;;;;;;;3.53;2.95;;;1.20;99.90;;;;;;5009114;28;20470;-84
2022/04/16 01:05:49;;;;;;;3.30;2.85;;;1.20;99.90;;;;;;5022088;28;20401;-85
2022/04/16 01:08:19;;;;;;;4.13;3.00;;;1.20;99.90;;;;;;5001740;28;20392;-84
2022/04/16 01:10:47;;;;;;;3.78;2.90;;;1.20;99.90;;;;;;5020698;28;20393;-83
2022/04/16 01:13:19;;;;;;;4.10;2.90;;;1.20;99.90;;;;;;5017386;28;20394;-85
2022/04/16 01:15:47;;;;;;;3.77;3.10;;;1.20;99.90;;;;;;5010493;28;20830;-84
2022/04/16 01:18:14;;;;;;;4.15;2.90;;;1.10;99.90;;;;;;5020670;28;20755;-84
2022/04/16 01:20:44;;;;;;;4.43;3.20;;;1.00;99.90;;;;;;5013463;28;20820;-84
2022/04/16 01:23:12;;;;;;;5.18;3.20;;;1.00;99.90;;;;;;5006608;28;20417;-84
2022/04/16 01:25:39;;;;;;;3.90;3.00;;;1.10;99.90;;;;;;5017064;28;20477;-84
2022/04/16 01:28:07;;;;;;;3.67;3.03;;;1.00;99.90;;;;;;5017133;28;20405;-84
2022/04/16 01:30:35;;;;;;;3.72;3.08;;;1.00;99.90;;;;;;5017096;28;20451;-86
2022/04/16 01:33:03;;;;;;;4.50;3.13;;;1.00;99.90;;;;;;5010801;28;20416;-85
2022/04/16 01:35:32;;;;;;;3.42;2.90;;;1.00;99.90;;;;;;5010625;28;20406;-84
2022/04/16 01:38:04;;;;;;;4.15;3.28;;;1.00;99.90;;;;;;5010463;28;20867;-85
2022/04/16 01:40:32;;;;;;;4.40;3.40;;;1.00;99.90;;;;;;5015628;28;20877;-85
2022/04/16 01:43:00;;;;;;;3.95;3.28;;;1.00;99.90;;;;;;5011535;28;20753;-85
2022/04/16 01:45:28;;;;;;;4.25;3.28;;;1.00;99.90;;;;;;5021790;28;20403;-85
2022/04/16 01:47:59;;;;;;;5.65;3.40;;;1.00;99.90;;;;;;5015801;28;20407;-84
2022/04/16 01:50:26;;;;;;;4.72;3.40;;;1.00;99.90;;;;;;5015185;28;20449;-85
2022/04/16 01:52:54;;;;;;;4.22;3.35;;;0.90;99.90;;;;;;5008953;28;20406;-84
2022/04/16 01:55:22;;;;;;;5.25;3.03;;;0.80;99.90;;;;;;5015513;28;20511;-85
2022/04/16 01:57:50;;;;;;;4.15;3.20;;;0.80;99.90;;;;;;5022503;28;20397;-84
2022/04/16 02:00:19;;;;;;;4.68;3.70;;;0.80;99.90;;;;;;5045921;27;20407;-85
2022/04/16 02:02:47;;;;;;;4.05;3.10;;;0.80;99.90;;;;;;5014983;28;20484;-84
2022/04/16 02:05:15;;;;;;;4.18;3.25;;;0.80;99.90;;;;;;5017414;28;20764;-85
2022/04/16 02:07:42;;;;;;;4.18;3.33;;;0.80;99.90;;;;;;5017023;28;20924;-85
2022/04/16 02:10:16;;;;;;;4.20;3.33;;;0.80;99.90;;;;;;5015495;28;20397;-85
2022/04/16 02:12:45;;;;;;;3.83;3.30;;;0.80;99.90;;;;;;5015702;28;20409;-85
2022/04/16 02:15:13;;;;;;;5.10;3.70;;;0.70;99.90;;;;;;5043228;28;20412;-84
2022/04/16 02:17:41;;;;;;;4.65;3.22;;;0.70;99.90;;;;;;5005172;28;20410;-84
2022/04/16 02:20:10;;;;;;;4.65;3.67;;;0.70;99.90;;;;;;5018749;28;20777;-85
2022/04/16 02:22:48;;;;;;;4.53;3.42;;;0.70;99.90;;;;;;5016677;28;20407;-86
2022/04/16 02:25:26;;;;;;;5.03;3.58;;;0.70;99.90;;;;;;5014981;28;20466;-85
2022/04/16 02:27:54;;;;;;;5.53;3.60;;;0.70;99.90;;;;;;5031690;28;20408;-84
2022/04/16 02:30:22;;;;;;;4.65;3.38;;;0.70;99.90;;;;;;5017410;28;20397;-84
2022/04/16 02:32:55;;;;;;;4.57;3.78;;;0.60;99.90;;;;;;5040312;28;20411;-84
2022/04/16 02:35:23;;;;;;;5.30;3.80;;;0.60;99.90;;;;;;5008925;28;20855;-84
2022/04/16 02:37:51;;;;;;;4.53;3.60;;;0.60;99.90;;;;;;5007629;28;20492;-85
2022/04/16 02:40:18;;;;;;;5.00;3.40;;;0.60;99.90;;;;;;5016053;28;20879;-84
2022/04/16 02:42:46;;;;;;;4.55;3.50;;;0.60;99.90;;;;;;4997000;28;20443;-85
2022/04/16 02:48:02;;;;;;;4.50;3.60;;;0.60;99.90;;;;;;5018790;28;20837;-84
2022/04/16 02:50:31;;;;;;;5.13;3.78;;;0.60;99.90;;;;;;5012512;28;20917;-84
2022/04/16 02:53:00;;;;;;;4.75;3.90;;;0.60;99.90;;;;;;5012160;28;20409;-85
2022/04/16 02:55:28;;;;;;;5.55;3.72;;;0.60;99.90;;;;;;5005762;28;20494;-84
2022/04/16 02:57:56;;;;;;;5.03;3.75;;;0.60;99.90;;;;;;5003975;28;20415;-84
2022/04/16 03:00:26;;;;;;;5.07;3.45;;;0.60;99.90;;;;;;5011296;28;20808;-84
2022/04/16 03:02:54;;;;;;;4.70;3.50;;;0.70;99.90;;;;;;5009044;28;20509;-84
2022/04/16 03:05:22;;;;;;;4.78;3.55;;;0.60;99.90;;;;;;5042626;28;20414;-85
2022/04/16 03:07:50;;;;;;;5.57;3.42;;;0.70;99.90;;;;;;5044504;28;20409;-85
2022/04/16 03:10:18;;;;;;;4.53;3.63;;;0.70;99.90;;;;;;5034388;28;20982;-85
2022/04/16 03:12:46;;;;;;;4.90;3.60;;;0.70;99.90;;;;;;5014403;28;20415;-84
2022/04/16 03:18:03;;;;;;;4.43;3.40;;;0.70;99.90;;;;;;5013371;28;20406;-84
2022/04/16 03:20:31;;;;;;;4.68;3.13;;;0.70;99.90;;;;;;5016634;28;20917;-84
2022/04/16 03:23:00;;;;;;;3.95;2.95;;;0.70;99.90;;;;;;5031292;28;20913;-84
2022/04/16 03:25:28;;;;;;;4.40;3.40;;;0.70;99.90;;;;;;5045788;28;20397;-84
2022/04/16 03:27:57;;;;;;;4.05;2.92;;;0.70;99.90;;;;;;5017930;28;20416;-85
2022/04/16 03:30:25;;;;;;;3.88;2.67;;;0.70;99.90;;;;;;5034460;28;20397;-85
2022/04/16 03:32:53;;;;;;;4.45;3.50;;;0.70;99.90;;;;;;5011897;28;20491;-84
2022/04/16 03:35:22;;;;;;;5.70;3.40;;;0.70;99.90;;;;;;5014704;28;20394;-84
2022/04/16 03:37:50;;;;;;;5.82;3.13;;;0.70;99.90;;;;;;5042575;28;20416;-84
2022/04/16 03:40:19;;;;;;;4.80;3.13;;;0.70;99.90;;;;;;5038594;28;20505;-85
2022/04/16 03:42:52;;;;;;;4.20;3.13;;;0.70;99.90;;;;;;5010259;28;20494;-85
2022/04/16 03:45:22;;;;;;;4.35;2.95;;;0.70;99.90;;;;;;5025994;28;20494;-85
2022/04/16 03:47:51;;;;;;;5.07;3.40;;;0.60;99.90;;;;;;5019474;28;20390;-84
2022/04/16 03:50:20;;;;;;;3.72;2.80;;;0.70;99.90;;;;;;5020308;28;20491;-85
2022/04/16 03:52:49;;;;;;;4.13;2.95;;;0.60;99.90;;;;;;5014778;28;20549;-85
2022/04/16 04:00:56;;;;;;;3.40;2.80;;;0.60;99.90;;;;;;5015581;28;20822;-85
2022/04/16 04:03:24;;;;;;;4.00;3.20;;;0.60;99.90;;;;;;5011910;28;20448;-85
2022/04/16 04:05:56;;;;;;;4.60;2.95;;;0.60;99.90;;;;;;5018887;28;20414;-85
2022/04/16 04:08:28;;;;;;;5.07;3.25;;;0.60;99.90;;;;;;5042858;28;20398;-84
2022/04/16 04:10:55;;;;;;;3.33;2.75;;;0.60;99.90;;;;;;5010268;28;20407;-83
2022/04/16 04:13:24;;;;;;;3.85;2.90;;;0.60;99.90;;;;;;5007819;28;20462;-84
2022/04/16 04:15:52;;;;;;;3.78;2.67;;;0.60;99.90;;;;;;5012301;28;20427;-85
2022/04/16 04:18:22;;;;;;;3.75;2.60;;;0.70;99.90;;;;;;5004791;28;20403;-84
2022/04/16 04:20:50;;;;;;;4.03;2.80;;;0.70;99.90;;;;;;5010550;28;20465;-84
2022/04/16 04:23:22;;;;;;;5.65;2.83;;;0.70;99.90;;;;;;5015841;28;20784;-85
2022/04/16 04:25:50;;;;;;;4.47;2.97;;;0.80;99.90;;;;;;5012678;28;20892;-86
2022/04/16 04:28:17;;;;;;;5.18;2.92;;;0.80;99.90;;;;;;4998690;28;20410;-86
2022/04/16 04:30:45;;;;;;;3.90;2.88;;;0.80;99.90;;;;;;5012581;28;20484;-86
2022/04/16 04:33:13;;;;;;;3.63;2.72;;;0.80;99.90;;;;;;5015740;28;20434;-86
2022/04/16 04:35:41;;;;;;;4.20;2.97;;;0.80;99.90;;;;;;5001670;28;20403;-85
2022/04/16 04:38:08;;;;;;;4.00;2.80;;;0.80;99.90;;;;;;5016504;28;20970;-87
2022/04/16 04:40:36;;;;;;;3.88;2.90;;;0.90;99.90;;;;;;5012425;28;20448;-87
2022/04/16 04:43:04;;;;;;;8.35;6.22;;;0.90;99.90;;;;;;5012897;28;20495;-87
2022/04/16 04:45:32;;;;;;;4.63;2.80;;;0.90;99.90;;;;;;5045159;28;20885;-87
2022/04/16 04:47:59;;;;;;;4.50;2.80;;;0.90;99.90;;;;;;5004174;28;20397;-87
2022/04/16 04:50:27;;;;;;;3.88;2.63;;;1.00;99.90;;;;;;5018950;28;20402;-87
2022/04/16 04:52:55;;;;;;;4.63;2.75;;;1.00;99.90;;;;;;5016625;28;20559;-87
2022/04/16 04:55:22;;;;;;;3.08;2.53;;;1.00;99.90;;;;;;5017947;28;20460;-88
2022/04/16 04:57:54;;;;;;;4.20;2.75;;;1.00;99.90;;;;;;5013534;28;20409;-87
2022/04/16 05:00:22;;;;;;;3.80;2.65;;;1.00;99.90;;;;;;5010579;28;20504;-87
2022/04/16 05:02:49;;;;;;;4.57;2.83;;;1.10;99.90;;;;;;5007855;28;20407;-86
2022/04/16 05:05:18;;;;;;;3.57;2.60;;;1.10;99.90;;;;;;5047243;28;20434;-87
2022/04/16 05:07:45;;;;;;;5.35;3.00;;;1.10;99.90;;;;;;5014161;28;20491;-88
2022/04/16 05:10:13;;;;;;;3.72;2.70;;;1.20;99.90;;;;;;5009769;28;20390;-86
2022/04/16 05:12:41;;;;;;;4.70;2.97;;;1.20;99.90;;;;;;5009230;28;20591;-87
2022/04/16 05:15:09;;;;;;;5.72;3.38;;;1.20;99.90;;;;;;5017703;28;20465;-86
2022/04/16 05:17:37;;;;;;;3.80;2.70;;;1.20;99.90;;;;;;5005390;28;20387;-87
2022/04/16 05:20:07;;;;;;;3.70;2.47;;;1.30;99.90;;;;;;5015643;28;20407;-87
2022/04/16 05:22:35;;;;;;;3.40;2.58;;;1.30;99.90;;;;;;5013670;28;20413;-88
2022/04/16 05:25:03;;;;;;;4.82;2.85;;;1.40;99.90;;;;;;5013880;28;20481;-90
2022/04/16 05:27:30;;;;;;;3.15;2.47;;;1.40;99.90;;;;;;5045386;28;20411;-89
2022/04/16 05:30:07;;;;;;;2.93;2.27;;;1.40;99.90;;;;;;5010435;28;20411;-88
2022/04/16 05:32:36;;;;;;;3.60;2.47;;;1.40;99.90;;;;;;5012593;28;20402;-90
2022/04/16 05:35:06;;;;;;;4.10;2.50;;;1.40;99.90;;;;;;5010477;28;20396;-88
2022/04/16 05:37:35;;;;;;;3.70;2.60;;;1.40;99.90;;;;;;5002486;28;20421;-87
2022/04/16 05:40:04;;;;;;;3.58;2.50;;;1.40;99.90;;;;;;5014064;28;20386;-88
2022/04/16 05:42:32;;;;;;;5.65;3.50;;;1.40;99.90;;;;;;5017783;28;20992;-87
2022/04/16 05:45:01;;;;;;;5.53;3.73;;;1.40;99.90;;;;;;5008516;28;20404;-85
2022/04/16 05:47:29;;;;;;;5.25;3.50;;;1.50;99.90;;;;;;5014458;28;20781;-88
2022/04/16 05:49:56;;;;;;;3.22;2.45;;;1.50;99.90;;;;;;5014797;28;20400;-86
2022/04/16 05:52:25;;;;;;;4.28;3.20;;;1.50;99.90;;;;;;5012322;28;20476;-86
2022/04/16 05:54:53;;;;;;;4.05;2.92;;;1.50;99.90;;;;;;5008804;28;20415;-85
2022/04/16 05:57:23;;;;;;;4.70;3.40;;;1.50;99.90;;;;;;5025578;28;20406;-86
2022/04/16 05:59:51;;;;;;;3.95;2.83;;;1.60;99.90;;;;;;5045992;28;20408;-87
2022/04/16 06:02:19;;;;;;;3.50;2.45;;;1.60;99.90;;;;;;5000728;28;20409;-85
2022/04/16 06:04:46;;;;;;;3.93;2.47;;;1.60;99.90;;;;;;5016211;28;20403;-86
2022/04/16 06:07:15;;;;;;;3.72;2.80;;;1.60;99.90;;;;;;5046499;28;20503;-87
2022/04/16 06:09:43;;;;;;;4.13;2.72;;;1.60;99.90;;;;;;5008811;28;20966;-86
2022/04/16 06:12:11;;;;;;;4.35;2.90;;;1.60;99.90;;;;;;5010279;28;20430;-87
2022/04/16 06:14:38;;;;;;;4.00;2.53;;;1.70;99.90;;;;;;5018458;28;20418;-86
2022/04/16 06:17:06;;;;;;;4.68;2.90;;;1.70;99.90;;;;;;5004613;28;20772;-86
2022/04/16 06:19:34;;;;;;;3.78;2.90;;;1.80;99.90;;;;;;5002392;28;20403;-87
2022/04/16 06:22:02;;;;;;;4.60;3.00;;;1.80;99.90;;;;;;5038759;28;20769;-85
2022/04/16 06:24:30;;;;;;;4.07;2.87;;;1.90;99.90;;;;;;5016506;28;20399;-87
2022/04/16 06:26:58;;;;;;;2.97;2.42;;;1.90;99.90;;;;;;5031988;28;20399;-86
2022/04/16 06:29:25;;;;;;;3.67;2.70;;;1.90;99.90;;;;;;5016657;28;20392;-87
2022/04/16 06:31:53;;;;;;;16.60;8.27;;;2.00;99.90;;;;;;5013548;28;20407;-90
2022/04/16 06:34:23;;;;;;;4.53;2.58;;;2.00;99.90;;;;;;5020353;28;20402;-88
2022/04/16 06:36:51;;;;;;;3.65;2.65;;;2.10;99.90;;;;;;5011695;28;20430;-90
2022/04/16 06:39:19;;;;;;;3.03;2.40;;;2.20;99.90;;;;;;4997806;28;20791;-92
2022/04/16 06:41:47;;;;;;;5.03;2.80;;;2.20;99.90;;;;;;5032312;28;20493;-91
2022/04/16 06:44:17;;;;;;;5.22;3.42;;;2.20;99.90;;;;;;5031769;28;20398;-90
2022/04/16 06:46:46;;;;;;;4.13;2.78;;;2.20;99.90;;;;;;5016835;28;20426;-90
2022/04/16 06:49:14;;;;;;;4.07;2.60;;;2.20;99.90;;;;;;4996964;28;20488;-92
2022/04/16 06:51:42;;;;;;;6.60;4.63;;;2.20;99.90;;;;;;5032639;28;20403;-87
2022/04/16 06:54:10;;;;;;;3.60;2.58;;;2.30;99.90;;;;;;5088613;28;20973;-91
2022/04/16 06:56:37;;;;;;;5.17;2.67;;;2.40;99.90;;;;;;5024853;28;20395;-90
2022/04/16 06:59:09;;;;;;;6.07;3.90;;;2.40;99.90;;;;;;5027812;28;20407;-90
2022/04/16 07:01:37;;;;;;;3.67;2.35;;;2.50;99.90;;;;;;5025117;28;20542;-90
2022/04/16 07:04:05;;;;;;;4.80;2.40;;;2.60;99.90;;;;;;5057720;28;20413;-88
2022/04/16 07:06:33;;;;;;;4.20;2.53;;;2.60;99.90;;;;;;5020642;28;20414;-90
2022/04/16 07:09:01;;;;;;;4.18;2.90;;;2.60;99.90;;;;;;5004156;28;20415;-89
2022/04/16 07:11:29;;;;;;;5.05;2.55;;;2.70;99.90;;;;;;4994063;28;20401;-90
2022/04/16 07:13:56;;;;;;;4.22;2.35;;;2.70;99.90;;;;;;5017767;28;20443;-90
2022/04/16 07:16:24;;;;;;;3.58;2.60;;;2.80;99.90;;;;;;5022920;28;20444;-91
2022/04/16 07:18:52;;;;;;;3.83;2.40;;;2.90;99.90;;;;;;5030557;28;20494;-90
2022/04/16 07:21:20;;;;;;;2.85;2.13;;;2.90;99.90;;;;;;5010051;28;20415;-90
2022/04/16 07:23:48;;;;;;;3.57;2.50;;;2.90;99.90;;;;;;5027334;28;20415;-89
2022/04/16 07:26:15;;;;;;;2.80;2.20;;;3.00;99.90;;;;;;5040813;28;20892;-89
2022/04/16 07:28:43;;;;;;;3.63;2.20;;;2.90;99.90;;;;;;5033991;28;20403;-88
2022/04/16 07:31:10;;;;;;;3.45;2.35;;;3.00;99.90;;;;;;5044737;28;20833;-90
2022/04/16 07:33:39;;;;;;;3.57;2.30;;;3.00;99.90;;;;;;5036407;28;20418;-89
2022/04/16 07:36:06;;;;;;;3.45;2.30;;;3.00;99.90;;;;;;5000454;28;21073;-89
2022/04/16 07:38:34;;;;;;;3.22;2.30;;;3.00;99.90;;;;;;5012216;28;20500;-90
2022/04/16 07:41:04;;;;;;;2.45;2.10;;;3.20;99.90;;;;;;5018415;28;20409;-90
2022/04/16 07:43:33;;;;;;;2.60;2.10;;;3.20;99.90;;;;;;5009650;28;20778;-89
2022/04/16 07:46:01;;;;;;;3.28;2.40;;;3.30;99.90;;;;;;5036735;28;20405;-90
2022/04/16 07:48:29;;;;;;;3.40;2.20;;;3.50;99.90;;;;;;5035761;28;20403;-90
2022/04/16 07:50:56;;;;;;;3.88;2.38;;;3.60;99.90;;;;;;5018788;28;20967;-89
2022/04/16 07:53:24;;;;;;;2.75;2.00;;;3.50;99.90;;;;;;5030164;28;20410;-88
2022/04/16 07:55:52;;;;;;;2.63;2.05;;;3.60;99.90;;;;;;4993269;28;20397;-88
2022/04/16 07:58:20;;;;;;;3.00;2.10;;;3.80;99.90;;;;;;4996912;28;20453;-90
2022/04/16 08:00:48;;;;;;;3.53;1.90;;;3.80;99.90;;;;;;4999572;28;20840;-90
2022/04/16 08:03:15;;;;;;;2.60;1.73;;;3.80;99.90;;;;;;5015623;28;20415;-88
2022/04/16 08:05:43;;;;;;;4.20;1.80;;;3.90;99.90;;;;;;5007042;28;20401;-88
2022/04/16 08:08:11;;;;;;;3.03;1.70;;;3.90;99.90;;;;;;5013826;28;20399;-88
2022/04/16 08:10:39;;;;;;;2.70;1.60;;;4.00;99.90;;;;;;5002410;28;20492;-90
2022/04/16 08:13:08;;;;;;;3.17;1.73;;;4.10;99.90;;;;;;5004466;28;20434;-89
2022/04/16 08:15:39;;;;;;;2.33;1.60;;;4.00;99.90;;;;;;5005417;28;20398;-89
2022/04/16 08:18:07;;;;;;;2.30;1.80;;;4.10;99.90;;;;;;5022220;28;20398;-88
2022/04/16 08:20:35;;;;;;;2.33;1.65;;;4.10;99.90;;;;;;5013772;28;20407;-88
2022/04/16 08:23:06;;;;;;;2.67;1.70;;;4.20;99.90;;;;;;5012144;28;20403;-90
2022/04/16 08:28:07;;;;;;;1.83;1.50;;;4.30;99.90;;;;;;5038573;28;20406;-89
2022/04/16 08:30:35;;;;;;;2.42;1.70;;;4.40;99.90;;;;;;5038099;28;20406;-91
2022/04/16 08:33:03;;;;;;;3.08;1.88;;;4.30;99.90;;;;;;5043052;28;20403;-90
2022/04/16 08:35:31;;;;;;;2.25;1.60;;;4.40;99.90;;;;;;5009417;28;20491;-92
2022/04/16 08:38:00;;;;;;;2.20;1.60;;;4.50;99.90;;;;;;5028129;28;20422;-90
2022/04/16 08:40:28;;;;;;;2.40;1.65;;;4.70;99.90;;;;;;5006470;28;20406;-91
2022/04/16 08:42:55;;;;;;;2.70;1.50;;;4.80;99.90;;;;;;5015211;28;20415;-90
2022/04/16 08:45:24;;;;;;;2.20;1.33;;;4.70;99.90;;;;;;5044099;28;20415;-90
2022/04/16 08:47:53;;;;;;;1.90;1.30;;;4.70;99.90;;;;;;5004403;28;20407;-89
2022/04/16 08:50:21;;;;;;;2.00;1.60;;;4.80;99.90;;;;;;5023223;28;20421;-91
2022/04/16 08:52:49;;;;;;;3.70;1.60;;;4.70;99.90;;;;;;5004390;28;20437;-90
2022/04/16 08:55:17;;;;;;;2.45;1.50;;;4.70;99.90;;;;;;5015733;28;20604;-91
2022/04/16 08:57:44;;;;;;;2.17;1.45;;;4.70;99.90;;;;;;4996748;28;20386;-88
2022/04/16 09:00:13;;;;;;;1.90;1.40;;;4.70;99.90;;;;;;5035683;28;20489;-90
2022/04/16 09:02:53;;;;;;;2.05;1.15;;;4.70;99.90;;;;;;5027864;28;20468;-89
2022/04/16 09:05:21;;;;;;;1.83;1.10;;;4.60;99.90;;;;;;5014887;28;20409;-89
2022/04/16 09:07:51;;;;;;;2.53;1.10;;;4.60;99.90;;;;;;5028771;28;20451;-88
2022/04/16 09:10:20;;;;;;;1.80;1.10;;;4.60;99.90;;;;;;5010836;28;20764;-90
2022/04/16 09:12:51;;;;;;;1.55;1.08;;;4.60;99.90;;;;;;4994815;28;20910;-90
2022/04/16 09:15:19;;;;;;;2.05;0.98;;;4.60;99.90;;;;;;5009821;28;20946;-90
2022/04/16 09:18:04;;;;;;;1.92;1.08;;;4.70;99.90;;;;;;4992762;28;20465;-89
2022/04/16 09:20:37;;;;;;;1.50;0.90;;;4.90;99.90;;;;;;4995106;28;20901;-90
2022/04/16 09:23:19;;;;;;;1.83;1.00;;;5.10;99.90;;;;;;5022001;28;20779;-91
2022/04/16 09:25:48;;;;;;;1.40;0.90;;;5.40;99.90;;;;;;4998721;28;20809;-92
2022/04/16 09:28:18;;;;;;;1.70;1.05;;;5.20;99.90;;;;;;5028829;28;20414;-93
2022/04/16 09:30:50;;;;;;;1.90;1.00;;;5.10;99.90;;;;;;5030956;28;20403;-92
2022/04/16 09:33:20;;;;;;;1.98;1.00;;;4.90;99.90;;;;;;5018865;28;20404;-89
2022/04/16 09:35:53;;;;;;;1.60;1.00;;;4.80;99.90;;;;;;5047662;28;20400;-91
2022/04/16 09:38:21;;;;;;;1.50;1.00;;;4.80;99.90;;;;;;5032325;28;20408;-92
2022/04/16 09:40:50;;;;;;;2.63;1.00;;;4.70;99.90;;;;;;5005632;28;20405;-90
2022/04/16 09:43:18;;;;;;;1.40;0.90;;;4.80;99.90;;;;;;4999438;28;20468;-91
2022/04/16 09:45:45;;;;;;;1.50;0.90;;;4.80;99.90;;;;;;5007792;28;20411;-90
2022/04/16 09:48:14;;;;;;;1.33;0.90;;;4.80;99.90;;;;;;5014203;28;20403;-91
2022/04/16 09:50:44;;;;;;;3.03;1.30;;;4.80;99.90;;;;;;5008937;28;20698;-92
2022/04/16 09:53:12;;;;;;;1.17;0.90;;;4.90;99.90;;;;;;4992319;28;20812;-91
2022/04/16 09:55:41;;;;;;;1.10;0.77;;;4.90;99.90;;;;;;5026981;28;20417;-90
2022/04/16 09:58:13;;;;;;;2.25;1.15;;;5.10;99.90;;;;;;5027975;28;20411;-90
2022/04/16 10:00:41;;;;;;;1.80;1.00;;;5.10;99.90;;;;;;5036984;28;20500;-92
2022/04/16 10:03:30;;;;;;;1.60;1.00;;;5.20;99.90;;;;;;5030447;28;20476;-92
2022/04/16 10:06:00;;;;;;;2.00;1.00;;;5.30;99.90;;;;;;5027660;28;21015;-90
2022/04/16 10:08:31;;;;;;;1.40;1.00;;;5.30;99.90;;;;;;5009336;28;20908;-89
2022/04/16 10:11:03;;;;;;;1.80;1.10;;;5.40;99.90;;;;;;5012111;28;20459;-91
2022/04/16 10:13:38;;;;;;;1.77;1.08;;;5.50;99.90;;;;;;5025303;28;20421;-89
2022/04/16 10:16:49;;;;;;;2.40;1.00;;;5.40;99.90;;;;;;5034261;28;20410;-90
2022/04/16 10:19:17;;;;;;;1.05;0.90;;;5.30;99.90;;;;;;5016311;28;20400;-90
2022/04/16 10:21:45;;;;;;;1.27;0.93;;;5.20;99.90;;;;;;5016132;28;20843;-90
2022/04/16 10:24:23;;;;;;;1.45;0.95;;;5.20;99.90;;;;;;5017532;28;20768;-89
2022/04/16 10:26:51;;;;;;;1.90;1.00;;;5.30;99.90;;;;;;5024359;28;20402;-91
2022/04/16 10:29:19;;;;;;;2.38;1.10;;;5.30;99.90;;;;;;5030987;28;21016;-91
2022/04/16 10:31:49;;;;;;;1.30;0.90;;;5.60;99.90;;;;;;5032205;28;20426;-90
2022/04/16 10:34:20;;;;;;;1.48;1.08;;;5.70;99.90;;;;;;5032964;28;20498;-91
2022/04/16 10:36:52;;;;;;;1.33;0.90;;;5.90;99.90;;;;;;5007893;28;20421;-90
2022/04/16 10:39:27;;;;;;;1.10;0.90;;;6.10;99.90;;;;;;5028263;28;20557;-91
2022/04/16 10:41:56;;;;;;;1.50;0.90;;;6.00;99.90;;;;;;5000326;28;22150;-92
2022/04/16 10:44:26;;;;;;;1.35;1.00;;;6.00;99.90;;;;;;5012316;28;20750;-90
2022/04/16 10:46:54;;;;;;;1.85;1.10;;;6.00;99.90;;;;;;5014498;28;20781;-91
2022/04/16 10:49:28;;;;;;;1.60;0.95;;;5.90;99.90;;;;;;5025661;28;20926;-91
2022/04/16 10:51:57;;;;;;;1.10;0.90;;;5.80;99.90;;;;;;5021204;28;20405;-91
2022/04/16 10:54:36;;;;;;;2.67;1.00;;;5.80;99.90;;;;;;5019652;28;20407;-90
2022/04/16 10:57:07;;;;;;;1.80;1.00;;;5.70;99.90;;;;;;5021772;28;20492;-84
2022/04/16 10:59:42;;;;;;;1.77;1.00;;;5.70;99.90;;;;;;5003767;28;20946;-84
2022/04/16 11:02:35;;;;;;;2.42;1.40;;;5.80;99.90;;;;;;5034505;28;20445;-83
2022/04/16 11:05:10;;;;;;;1.50;1.05;;;5.80;99.90;;;;;;5015372;28;20762;-91
2022/04/16 11:07:40;;;;;;;1.57;0.80;;;5.80;99.90;;;;;;5016869;28;20386;-90
2022/04/16 11:10:11;;;;;;;1.55;1.00;;;5.70;99.90;;;;;;5020738;28;20829;-92
2022/04/16 11:12:40;;;;;;;2.30;0.82;;;5.70;99.90;;;;;;5034235;28;20402;-92
2022/04/16 11:15:26;;;;;;;1.75;0.80;;;5.70;99.90;;;;;;5009425;28;20411;-91
2022/04/16 11:17:55;;;;;;;2.27;0.90;;;5.80;99.90;;;;;;5021245;28;20460;-92
2022/04/16 11:20:25;;;;;;;1.88;1.00;;;5.80;99.90;;;;;;5036257;28;20411;-92
2022/04/16 11:22:54;;;;;;;1.75;1.10;;;5.90;99.90;;;;;;5029818;28;20405;-91
2022/04/16 11:25:24;;;;;;;1.20;0.90;;;6.00;99.90;;;;;;5011493;28;20442;-92
2022/04/16 11:36:14;;;;;;;1.40;0.90;;;6.10;99.90;;;;;;5017552;28;20441;-91
2022/04/16 11:38:44;;;;;;;2.00;0.90;;;6.40;99.90;;;;;;5040455;28;20409;-92
2022/04/16 11:41:12;;;;;;;1.42;0.90;;;6.50;99.90;;;;;;5047852;28;20408;-91
2022/04/16 11:43:50;;;;;;;1.90;1.00;;;6.60;99.90;;;;;;5010708;28;20441;-91
2022/04/16 11:46:22;;;;;;;0.93;0.80;;;6.80;99.90;;;;;;5000295;28;20406;-91
2022/04/16 11:48:51;;;;;;;2.05;0.80;;;7.00;99.90;;;;;;5016136;28;20481;-92
2022/04/16 11:51:19;;;;;;;2.15;1.00;;;7.00;99.90;;;;;;5015360;28;20479;-91
2022/04/16 11:53:52;;;;;;;1.33;0.80;;;7.00;99.90;;;;;;5010824;28;20399;-93
2022/04/16 11:56:23;;;;;;;2.70;1.00;;;7.00;99.90;;;;;;5011698;28;20474;-92
2022/04/16 11:58:52;;;;;;;1.23;0.90;;;7.40;99.90;;;;;;5013428;28;20409;-92
2022/04/16 12:01:23;;;;;;;0.98;0.88;;;7.20;99.90;;;;;;5012662;28;20590;-92
2022/04/16 12:03:56;;;;;;;1.87;1.03;;;7.00;99.90;;;;;;5000070;28;20409;-91
2022/04/16 12:06:24;;;;;;;1.20;0.90;;;6.70;99.90;;;;;;5041490;28;20406;-91
2022/04/16 12:08:54;;;;;;;2.13;0.90;;;6.60;99.90;;;;;;4992781;28;20420;-92
2022/04/16 12:11:23;;;;;;;1.65;0.75;;;6.50;99.90;;;;;;5023603;28;20405;-92
2022/04/16 12:13:54;;;;;;;1.10;0.70;;;6.70;99.90;;;;;;4990220;28;20768;-92
2022/04/16 12:16:21;;;;;;;1.33;0.80;;;7.00;99.90;;;;;;5028494;28;20448;-91
2022/04/16 12:18:49;;;;;;;1.50;0.77;;;7.20;99.90;;;;;;5029890;28;20404;-92
2022/04/16 12:21:18;;;;;;;1.25;0.80;;;7.30;99.90;;;;;;5034545;28;20409;-91
2022/04/16 12:23:46;;;;;;;2.08;0.85;;;7.40;99.90;;;;;;5023952;28;20413;-92
2022/04/16 12:26:15;;;;;;;1.90;0.70;;;7.40;99.90;;;;;;5007235;28;20414;-91
2022/04/16 12:28:53;;;;;;;0.68;0.60;;;7.00;99.90;;;;;;5025409;28;20400;-92
2022/04/16 12:31:30;;;;;;;0.60;0.60;;;6.90;99.90;;;;;;5015593;28;20499;-91
2022/04/16 12:33:58;;;;;;;1.17;0.68;;;6.70;99.90;;;;;;5001619;28;20462;-91
2022/04/16 12:36:25;;;;;;;0.85;0.60;;;6.80;99.90;;;;;;5007449;28;20770;-92
2022/04/16 12:38:56;;;;;;;0.85;0.70;;;7.00;99.90;;;;;;5027517;28;20418;-92
2022/04/16 12:41:24;;;;;;;1.50;0.80;;;7.20;99.90;;;;;;5027962;28;20412;-91
2022/04/16 12:43:51;;;;;;;1.43;0.80;;;7.30;99.90;;;;;;5023053;28;20427;-92
2022/04/16 12:46:19;;;;;;;1.58;0.80;;;7.70;99.90;;;;;;5010967;28;20494;-91
2022/04/16 12:48:47;;;;;;;1.77;0.90;;;7.60;99.90;;;;;;5007600;28;20405;-91
2022/04/16 12:51:14;;;;;;;1.30;0.80;;;7.30;99.90;;;;;;5035596;28;20411;-92
2022/04/16 12:53:42;;;;;;;1.73;0.80;;;7.10;99.90;;;;;;5038424;28;20405;-91
2022/04/16 12:56:10;;;;;;;1.20;0.90;;;6.90;99.90;;;;;;5020162;28;20401;-91
2022/04/16 12:58:37;;;;;;;2.25;1.00;;;6.90;99.90;;;;;;4988786;28;20758;-92
2022/04/16 13:01:06;;;;;;;3.17;0.80;;;6.90;99.90;;;;;;4998861;28;20417;-92
2022/04/16 13:03:35;;;;;;;1.60;1.03;;;6.90;99.90;;;;;;5042192;28;20439;-92
2022/04/16 13:06:03;;;;;;;1.00;0.70;;;7.00;99.90;;;;;;5016971;28;20446;-92
2022/04/16 13:08:31;;;;;;;2.58;0.90;;;7.30;99.90;;;;;;4999688;28;20413;-96
2022/04/16 13:10:59;;;;;;;18.27;12.40;;;7.50;99.90;;;;;;5017406;28;20419;-86
2022/04/16 13:13:27;;;;;;;18.63;14.57;;;7.80;99.90;;;;;;5014908;28;20397;-88
2022/04/16 13:15:55;;;;;;;1.73;0.93;;;7.80;99.90;;;;;;5018228;28;20412;-86
2022/04/16 13:18:23;;;;;;;3.15;1.00;;;7.50;99.90;;;;;;5011502;28;20405;-85
2022/04/16 13:20:51;;;;;;;1.60;1.00;;;7.30;99.90;;;;;;5004076;28;20396;-90
2022/04/16 13:23:18;;;;;;;1.60;0.90;;;7.10;99.90;;;;;;4990264;28;20427;-89
2022/04/16 13:25:46;;;;;;;2.03;0.90;;;7.00;99.90;;;;;;5022325;28;21015;-91
2022/04/16 13:28:14;;;;;;;1.70;1.13;;;6.80;99.90;;;;;;5032748;28;20413;-90
2022/04/16 13:30:41;;;;;;;2.13;1.10;;;6.80;99.90;;;;;;5016913;28;20402;-89